首页
METAR-TAF:

METAR-TAF

机场 :

巴拿馬城, 巴拿马

纬度: 08-59N, 经度: 079-31W, 海拔: 13米

当前天气观测

该预报发布于55分钟前的11:00 UTC
风速5节,风向北转西北
温度 26°C
湿度 84%
气压 1009 hPa
能見度: 9000
少量云层高于2000英尺
散云层高于8000英尺

METAR: MPMG 091100Z 33005KT 9000 FEW020 SCT080 26/23 Q1009 NOSIG

时间: 06:55 (11:55 UTC)

预报

该预报发布于55分钟前的11:00 UTC
预报有效从09日的 12点(UTC)到 09日的 24点(UTC)
风速8节,风向北转西北
能见度10公里或以上
散云层高于1800英尺
散云层高于9000英尺
几率 30% :
短暂存在
从 09日的 17点(UTC)到 09日的 19点(UTC)
能見度: 7000
散云层高于1600英尺
多云层高于8000英尺
阵雨

TAF: MPMG 091100Z 0912/0924 33008KT 9999 SCT018 SCT090 PROB30 TEMPO 0917/0919 7000 SHRA SCT016 BKN080

超过4000个机场的气象观测和天气预报(METAR&TAF报告)。

可查询的气象台以黄色和红色小点在地图上表示。

将鼠标移到小点上方,可查看气象台名称。

然后点击查看天气观测和预报。

如需切换地图:点击带黑十字的绿色按钮放大地图;点击带横线的绿色按钮缩小地图;或者点击绿色箭头查看邻近地区的地图。


METAR-TAF: